Pagrindinis puslapis
METAR-TAF:

METAR-TAF

Oro uostai :

Ekseteris, Anglija

platuma: 50-44N, ilguma: 003-25W, Aukštis: 30 m

Dabartinis oras

Ataskaita buvo paskelbta 4 valandos ir 4 minutes, ne 01:50 UTC
Vėjas 4 kt iš Šiaurės
Temperatūra 1°C
Drėgmė 93%
Slėgis 1014 hPa
Matomumas 10 km arba daugiau
nėra debesų žemiau 1500 m ir nėra kamuolinių lietaus debesų

METAR: EGTE 280150Z 01004KT CAVOK 01/00 Q1014

Laikas: 05:54 (05:54 UTC)

Prognozė

Ataskaita buvo paskelbta 6 valandos ir 52 minutes, ne 23:02 UTC
Prognozė galioja nuo 28 metu 00 UTC su 28 metu 04 UTC
Vėjas 4 kt iš Pietų/Pietryčių
Matomumas 10 km arba daugiau
nėra debesų žemiau 1500 m ir nėra kamuolinių lietaus debesų
Tikimybė 30%
nuo 28 metu 03 UTC su 28 metu 04 UTC
Vėjas 14 kt iš Pietų
Išsisklaidę debesys ne aukštis 800 ft
Su prošvaistėmis ne aukštis 2000 ft

TAF: EGTE 272302Z 2800/2804 16004KT CAVOK PROB30 2803/2804 17014KT SCT008 BKN020

Orai ataskaitas ir orų prognozės (METAR, TAF).

turimą stotys yra geltonos ir raudonos taškus žemėlapyje.

Perkelti pele per norėdami pamatyti stoties vardą.

Tada spustelėkite, norėdami matyti oro stebėjimo ir prognozės.

Norėdami pakeisti žemėlapį: spustelėkite ant žalios mygtukų su juodo kryžiaus žemyn,; žalią mygtuką su brūkšneliu, jei norite nutolinti; arba žalių rodyklių gretimoms žemėlapius.


METAR-TAF: